sensor_id;sensor_type;location;lat;lon;timestamp;pressure;altitude;pressure_sealevel;temperature;humidity
10992;BME280;5549;47.028;15.514;2023-02-12T00:01:20;97969.94;;;4.94;39.68
10992;BME280;5549;47.028;15.514;2023-02-12T00:03:49;97969.94;;;4.94;39.06
10992;BME280;5549;47.028;15.514;2023-02-12T00:06:17;97973.59;;;4.66;40.16
10992;BME280;5549;47.028;15.514;2023-02-12T00:08:48;97975.75;;;5.00;39.84
10992;BME280;5549;47.028;15.514;2023-02-12T00:11:19;97971.81;;;5.12;40.21
10992;BME280;5549;47.028;15.514;2023-02-12T00:13:50;97971.66;;;4.71;39.53
10992;BME280;5549;47.028;15.514;2023-02-12T00:16:23;97969.59;;;4.58;39.66
10992;BME280;5549;47.028;15.514;2023-02-12T00:18:54;97971.44;;;4.77;39.76
10992;BME280;5549;47.028;15.514;2023-02-12T00:21:23;97979.19;;;5.01;39.28
10992;BME280;5549;47.028;15.514;2023-02-12T00:23:52;97976.06;;;5.14;39.75
10992;BME280;5549;47.028;15.514;2023-02-12T00:26:21;97969.66;;;5.23;39.04
10992;BME280;5549;47.028;15.514;2023-02-12T00:28:49;97966.81;;;5.29;39.56
10992;BME280;5549;47.028;15.514;2023-02-12T00:31:19;97963.94;;;5.35;39.69
10992;BME280;5549;47.028;15.514;2023-02-12T00:33:47;97969.03;;;5.38;39.51
10992;BME280;5549;47.028;15.514;2023-02-12T00:36:18;97960.97;;;5.44;39.33
10992;BME280;5549;47.028;15.514;2023-02-12T00:38:50;97958.38;;;5.44;38.70
10992;BME280;5549;47.028;15.514;2023-02-12T00:41:20;97971.19;;;5.49;39.37
10992;BME280;5549;47.028;15.514;2023-02-12T00:43:48;97974.78;;;5.46;39.79
10992;BME280;5549;47.028;15.514;2023-02-12T00:46:16;97985.19;;;5.46;39.82
10992;BME280;5549;47.028;15.514;2023-02-12T00:48:43;97984.28;;;5.47;40.44
10992;BME280;5549;47.028;15.514;2023-02-12T00:51:11;97989.56;;;5.46;40.84
10992;BME280;5549;47.028;15.514;2023-02-12T00:53:39;97990.00;;;5.35;41.44
10992;BME280;5549;47.028;15.514;2023-02-12T00:56:06;97978.59;;;5.16;42.00
10992;BME280;5549;47.028;15.514;2023-02-12T00:58:35;98002.41;;;4.62;42.11
10992;BME280;5549;47.028;15.514;2023-02-12T01:01:04;97998.31;;;4.78;42.48
10992;BME280;5549;47.028;15.514;2023-02-12T01:03:31;97988.47;;;4.63;41.99
10992;BME280;5549;47.028;15.514;2023-02-12T01:05:59;97996.00;;;4.70;41.71
10992;BME280;5549;47.028;15.514;2023-02-12T01:08:27;98004.03;;;4.64;41.69
10992;BME280;5549;47.028;15.514;2023-02-12T01:11:00;98006.13;;;4.78;41.50
10992;BME280;5549;47.028;15.514;2023-02-12T01:13:29;98002.56;;;4.80;42.64
10992;BME280;5549;47.028;15.514;2023-02-12T01:16:05;97994.56;;;4.85;43.04
10992;BME280;5549;47.028;15.514;2023-02-12T01:18:34;97997.34;;;4.34;43.68
10992;BME280;5549;47.028;15.514;2023-02-12T01:21:07;97995.41;;;4.15;44.40
10992;BME280;5549;47.028;15.514;2023-02-12T01:23:34;98001.75;;;4.08;44.33
10992;BME280;5549;47.028;15.514;2023-02-12T01:26:02;98005.38;;;4.28;43.73
10992;BME280;5549;47.028;15.514;2023-02-12T01:28:30;98007.94;;;4.29;43.96
10992;BME280;5549;47.028;15.514;2023-02-12T01:30:59;98010.59;;;4.28;43.55
10992;BME280;5549;47.028;15.514;2023-02-12T01:33:30;98002.03;;;4.24;44.03
10992;BME280;5549;47.028;15.514;2023-02-12T01:35:58;97997.47;;;4.31;43.33
10992;BME280;5549;47.028;15.514;2023-02-12T01:38:25;98001.03;;;4.28;43.61
10992;BME280;5549;47.028;15.514;2023-02-12T01:41:02;98007.06;;;4.29;43.47
10992;BME280;5549;47.028;15.514;2023-02-12T01:43:30;98000.97;;;4.30;43.47
10992;BME280;5549;47.028;15.514;2023-02-12T01:46:00;98000.75;;;4.36;43.32
10992;BME280;5549;47.028;15.514;2023-02-12T01:48:32;97992.16;;;4.34;43.21
10992;BME280;5549;47.028;15.514;2023-02-12T01:51:01;97986.00;;;4.36;43.25
10992;BME280;5549;47.028;15.514;2023-02-12T01:53:35;97981.66;;;4.37;43.25
10992;BME280;5549;47.028;15.514;2023-02-12T01:56:04;97983.28;;;4.39;43.18
10992;BME280;5549;47.028;15.514;2023-02-12T01:58:37;97989.38;;;4.38;42.66
10992;BME280;5549;47.028;15.514;2023-02-12T02:01:09;97984.19;;;4.38;42.84
10992;BME280;5549;47.028;15.514;2023-02-12T02:03:43;97988.59;;;4.36;42.52
10992;BME280;5549;47.028;15.514;2023-02-12T02:06:16;97990.34;;;4.36;42.49
10992;BME280;5549;47.028;15.514;2023-02-12T02:08:53;97977.06;;;4.20;43.42
10992;BME280;5549;47.028;15.514;2023-02-12T02:11:21;97998.66;;;4.22;43.90
10992;BME280;5549;47.028;15.514;2023-02-12T02:14:06;98003.63;;;4.28;43.66
10992;BME280;5549;47.028;15.514;2023-02-12T02:17:05;97987.84;;;4.33;43.47
10992;BME280;5549;47.028;15.514;2023-02-12T02:22:41;97988.59;;;3.88;44.41
10992;BME280;5549;47.028;15.514;2023-02-12T02:25:41;97999.81;;;4.13;43.87
10992;BME280;5549;47.028;15.514;2023-02-12T02:29:01;98002.53;;;4.10;44.18
10992;BME280;5549;47.028;15.514;2023-02-12T02:31:40;97992.09;;;4.12;44.40
10992;BME280;5549;47.028;15.514;2023-02-12T02:34:16;97996.75;;;4.02;44.79
10992;BME280;5549;47.028;15.514;2023-02-12T02:36:51;98011.56;;;4.00;44.43
10992;BME280;5549;47.028;15.514;2023-02-12T02:39:28;98009.16;;;3.94;43.97
10992;BME280;5549;47.028;15.514;2023-02-12T02:42:02;98008.91;;;4.02;44.09
10992;BME280;5549;47.028;15.514;2023-02-12T02:44:38;98007.09;;;4.04;44.09
10992;BME280;5549;47.028;15.514;2023-02-12T02:47:14;98002.53;;;4.10;44.16
10992;BME280;5549;47.028;15.514;2023-02-12T02:49:52;98000.63;;;4.15;43.88
10992;BME280;5549;47.028;15.514;2023-02-12T02:52:28;98008.53;;;4.12;43.65
10992;BME280;5549;47.028;15.514;2023-02-12T02:55:03;98000.66;;;4.14;43.46
10992;BME280;5549;47.028;15.514;2023-02-12T02:57:39;98000.72;;;4.12;43.27
10992;BME280;5549;47.028;15.514;2023-02-12T03:00:14;98010.97;;;4.17;43.42
10992;BME280;5549;47.028;15.514;2023-02-12T03:02:49;98017.22;;;4.11;43.46
10992;BME280;5549;47.028;15.514;2023-02-12T03:05:21;98013.41;;;4.22;43.86
10992;BME280;5549;47.028;15.514;2023-02-12T03:08:05;98014.88;;;4.29;44.06
10992;BME280;5549;47.028;15.514;2023-02-12T03:10:39;98002.56;;;4.34;43.47
10992;BME280;5549;47.028;15.514;2023-02-12T03:13:13;97998.94;;;4.38;43.17
10992;BME280;5549;47.028;15.514;2023-02-12T03:15:49;98010.19;;;4.38;43.23
10992;BME280;5549;47.028;15.514;2023-02-12T03:18:25;98017.38;;;4.32;43.31
10992;BME280;5549;47.028;15.514;2023-02-12T03:21:01;98010.94;;;4.42;42.86
10992;BME280;5549;47.028;15.514;2023-02-12T03:23:36;98010.94;;;4.42;42.60
10992;BME280;5549;47.028;15.514;2023-02-12T03:26:10;98014.53;;;4.38;42.72
10992;BME280;5549;47.028;15.514;2023-02-12T03:28:40;98017.66;;;4.47;42.88
10992;BME280;5549;47.028;15.514;2023-02-12T03:31:14;98020.25;;;4.47;43.09
10992;BME280;5549;47.028;15.514;2023-02-12T03:34:00;98013.94;;;4.55;42.82
10992;BME280;5549;47.028;15.514;2023-02-12T03:36:40;98012.19;;;4.55;42.21
10992;BME280;5549;47.028;15.514;2023-02-12T03:39:12;98017.22;;;4.60;42.00
10992;BME280;5549;47.028;15.514;2023-02-12T03:41:46;98033.56;;;4.63;41.95
10992;BME280;5549;47.028;15.514;2023-02-12T03:44:28;98035.19;;;4.66;42.41
10992;BME280;5549;47.028;15.514;2023-02-12T03:47:04;98033.34;;;4.69;42.31
10992;BME280;5549;47.028;15.514;2023-02-12T03:49:45;98033.28;;;4.71;42.24
10992;BME280;5549;47.028;15.514;2023-02-12T03:52:17;98040.06;;;4.75;42.23
10992;BME280;5549;47.028;15.514;2023-02-12T03:54:45;98044.31;;;4.77;41.80
10992;BME280;5549;47.028;15.514;2023-02-12T03:57:16;98042.56;;;4.78;41.72
10992;BME280;5549;47.028;15.514;2023-02-12T03:59:46;98044.19;;;4.80;42.01
10992;BME280;5549;47.028;15.514;2023-02-12T04:02:15;98044.19;;;4.80;41.61
10992;BME280;5549;47.028;15.514;2023-02-12T04:04:46;98041.59;;;4.80;41.30
10992;BME280;5549;47.028;15.514;2023-02-12T04:07:14;98051.03;;;4.83;41.38
10992;BME280;5549;47.028;15.514;2023-02-12T04:09:45;98056.69;;;4.47;42.08
10992;BME280;5549;47.028;15.514;2023-02-12T04:12:32;98048.38;;;4.61;42.12
10992;BME280;5549;47.028;15.514;2023-02-12T04:15:29;98053.69;;;4.58;41.70
10992;BME280;5549;47.028;15.514;2023-02-12T04:18:08;98057.41;;;4.51;42.20
10992;BME280;5549;47.028;15.514;2023-02-12T04:20:48;98061.38;;;4.61;42.10
10992;BME280;5549;47.028;15.514;2023-02-12T04:23:38;98059.53;;;4.65;42.32
10992;BME280;5549;47.028;15.514;2023-02-12T04:26:20;98057.94;;;4.61;42.49
10992;BME280;5549;47.028;15.514;2023-02-12T04:29:04;98053.59;;;4.61;42.82
10992;BME280;5549;47.028;15.514;2023-02-12T04:31:39;98050.69;;;4.45;42.75
10992;BME280;5549;47.028;15.514;2023-02-12T04:34:14;98060.72;;;4.06;44.47
10992;BME280;5549;47.028;15.514;2023-02-12T04:36:51;98065.94;;;4.06;44.37
10992;BME280;5549;47.028;15.514;2023-02-12T04:39:26;98062.47;;;4.06;44.39
10992;BME280;5549;47.028;15.514;2023-02-12T04:41:57;98078.97;;;4.05;44.30
10992;BME280;5549;47.028;15.514;2023-02-12T04:44:30;98080.84;;;4.01;44.15
10992;BME280;5549;47.028;15.514;2023-02-12T04:46:58;98081.53;;;3.80;44.60
10992;BME280;5549;47.028;15.514;2023-02-12T04:49:26;98080.75;;;3.78;44.58
10992;BME280;5549;47.028;15.514;2023-02-12T04:51:57;98079.03;;;3.77;44.85
10992;BME280;5549;47.028;15.514;2023-02-12T04:54:24;98081.75;;;3.74;44.32
10992;BME280;5549;47.028;15.514;2023-02-12T04:56:52;98092.78;;;3.80;44.02
10992;BME280;5549;47.028;15.514;2023-02-12T04:59:19;98087.25;;;3.91;43.75
10992;BME280;5549;47.028;15.514;2023-02-12T05:01:47;98092.34;;;3.94;43.88
10992;BME280;5549;47.028;15.514;2023-02-12T05:04:16;98091.34;;;3.98;44.35
10992;BME280;5549;47.028;15.514;2023-02-12T05:06:45;98091.81;;;4.09;43.37
10992;BME280;5549;47.028;15.514;2023-02-12T05:09:18;98087.59;;;4.32;42.35
10992;BME280;5549;47.028;15.514;2023-02-12T05:11:46;98092.69;;;4.35;42.44
10992;BME280;5549;47.028;15.514;2023-02-12T05:14:15;98101.81;;;4.46;42.32
10992;BME280;5549;47.028;15.514;2023-02-12T05:16:43;98097.19;;;4.55;42.07
10992;BME280;5549;47.028;15.514;2023-02-12T05:19:11;98100.41;;;4.61;41.69
10992;BME280;5549;47.028;15.514;2023-02-12T05:21:38;98108.16;;;4.63;41.61
10992;BME280;5549;47.028;15.514;2023-02-12T05:24:06;98106.47;;;4.62;41.85
10992;BME280;5549;47.028;15.514;2023-02-12T05:26:36;98108.91;;;4.66;41.60
10992;BME280;5549;47.028;15.514;2023-02-12T05:29:03;98113.25;;;4.66;41.10
10992;BME280;5549;47.028;15.514;2023-02-12T05:31:33;98112.34;;;4.67;41.63
10992;BME280;5549;47.028;15.514;2023-02-12T05:34:03;98115.81;;;4.67;42.21
10992;BME280;5549;47.028;15.514;2023-02-12T05:36:35;98121.84;;;4.68;42.18
10992;BME280;5549;47.028;15.514;2023-02-12T05:39:06;98139.16;;;4.69;41.88
10992;BME280;5549;47.028;15.514;2023-02-12T05:41:37;98141.28;;;4.33;42.70
10992;BME280;5549;47.028;15.514;2023-02-12T05:44:05;98144.38;;;4.44;42.50
10992;BME280;5549;47.028;15.514;2023-02-12T05:46:33;98161.22;;;4.07;43.12
10992;BME280;5549;47.028;15.514;2023-02-12T05:49:03;98156.22;;;4.01;43.17
10992;BME280;5549;47.028;15.514;2023-02-12T05:51:31;98158.31;;;3.90;43.19
10992;BME280;5549;47.028;15.514;2023-02-12T05:54:03;98161.31;;;4.04;42.86
10992;BME280;5549;47.028;15.514;2023-02-12T05:56:32;98165.16;;;4.19;42.63
10992;BME280;5549;47.028;15.514;2023-02-12T05:59:04;98162.91;;;4.35;41.55
10992;BME280;5549;47.028;15.514;2023-02-12T06:01:38;98161.47;;;4.26;41.87
10992;BME280;5549;47.028;15.514;2023-02-12T06:04:09;98175.81;;;4.38;41.42
10992;BME280;5549;47.028;15.514;2023-02-12T06:06:39;98170.84;;;4.30;41.55
10992;BME280;5549;47.028;15.514;2023-02-12T06:09:08;98188.00;;;4.36;41.78
10992;BME280;5549;47.028;15.514;2023-02-12T06:11:36;98185.91;;;4.47;41.53
10992;BME280;5549;47.028;15.514;2023-02-12T06:14:08;98176.50;;;4.68;41.09
10992;BME280;5549;47.028;15.514;2023-02-12T06:16:37;98179.59;;;4.79;41.42
10992;BME280;5549;47.028;15.514;2023-02-12T06:19:05;98192.28;;;4.63;40.52
10992;BME280;5549;47.028;15.514;2023-02-12T06:21:33;98191.97;;;4.72;40.26
10992;BME280;5549;47.028;15.514;2023-02-12T06:24:01;98204.53;;;4.84;39.85
10992;BME280;5549;47.028;15.514;2023-02-12T06:26:28;98211.06;;;4.96;39.34
10992;BME280;5549;47.028;15.514;2023-02-12T06:28:56;98212.72;;;4.99;39.32
10992;BME280;5549;47.028;15.514;2023-02-12T06:31:27;98210.75;;;5.05;38.89
10992;BME280;5549;47.028;15.514;2023-02-12T06:34:01;98215.47;;;5.19;39.42
10992;BME280;5549;47.028;15.514;2023-02-12T06:36:29;98212.78;;;5.22;40.04
10992;BME280;5549;47.028;15.514;2023-02-12T06:39:00;98224.84;;;5.25;41.71
10992;BME280;5549;47.028;15.514;2023-02-12T06:41:30;98223.09;;;5.25;41.33
10992;BME280;5549;47.028;15.514;2023-02-12T06:43:58;98221.28;;;5.27;41.44
10992;BME280;5549;47.028;15.514;2023-02-12T06:46:27;98217.66;;;5.31;41.65
10992;BME280;5549;47.028;15.514;2023-02-12T06:48:57;98219.63;;;5.25;40.54
10992;BME280;5549;47.028;15.514;2023-02-12T06:51:28;98228.06;;;5.31;40.68
10992;BME280;5549;47.028;15.514;2023-02-12T06:53:57;98231.53;;;5.32;41.85
10992;BME280;5549;47.028;15.514;2023-02-12T06:56:25;98241.03;;;5.56;50.87
10992;BME280;5549;47.028;15.514;2023-02-12T06:58:55;98246.91;;;5.85;57.40
10992;BME280;5549;47.028;15.514;2023-02-12T07:01:27;98249.44;;;6.09;56.48
10992;BME280;5549;47.028;15.514;2023-02-12T07:03:59;98249.16;;;6.39;56.23
10992;BME280;5549;47.028;15.514;2023-02-12T07:06:30;98251.25;;;6.51;50.49
10992;BME280;5549;47.028;15.514;2023-02-12T07:08:58;98256.22;;;6.57;45.22
10992;BME280;5549;47.028;15.514;2023-02-12T07:11:31;98257.31;;;6.52;43.64
10992;BME280;5549;47.028;15.514;2023-02-12T07:13:59;98253.31;;;6.43;43.08
10992;BME280;5549;47.028;15.514;2023-02-12T07:16:28;98250.84;;;6.40;43.45
10992;BME280;5549;47.028;15.514;2023-02-12T07:18:56;98247.69;;;6.32;42.28
10992;BME280;5549;47.028;15.514;2023-02-12T07:21:23;98248.41;;;6.14;42.12
10992;BME280;5549;47.028;15.514;2023-02-12T07:23:52;98260.13;;;6.03;41.94
10992;BME280;5549;47.028;15.514;2023-02-12T07:26:20;98269.28;;;6.14;42.61
10992;BME280;5549;47.028;15.514;2023-02-12T07:28:48;98269.72;;;6.25;42.42
10992;BME280;5549;47.028;15.514;2023-02-12T07:31:21;98264.44;;;6.26;42.13
10992;BME280;5549;47.028;15.514;2023-02-12T07:33:53;98265.34;;;6.25;41.83
10992;BME280;5549;47.028;15.514;2023-02-12T07:36:22;98267.16;;;6.01;41.09
10992;BME280;5549;47.028;15.514;2023-02-12T07:38:50;98278.81;;;6.15;41.83
10992;BME280;5549;47.028;15.514;2023-02-12T07:41:20;98270.81;;;6.19;43.21
10992;BME280;5549;47.028;15.514;2023-02-12T07:43:53;98280.16;;;6.25;42.41
10992;BME280;5549;47.028;15.514;2023-02-12T07:46:22;98270.81;;;6.19;42.57
10992;BME280;5549;47.028;15.514;2023-02-12T07:48:55;98276.75;;;6.23;43.53
10992;BME280;5549;47.028;15.514;2023-02-12T07:51:23;98270.63;;;6.02;41.62
10992;BME280;5549;47.028;15.514;2023-02-12T07:53:52;98273.28;;;5.77;42.45
10992;BME280;5549;47.028;15.514;2023-02-12T07:56:22;98269.75;;;5.78;42.46
10992;BME280;5549;47.028;15.514;2023-02-12T07:58:52;98270.06;;;5.94;41.99
10992;BME280;5549;47.028;15.514;2023-02-12T08:01:22;98273.84;;;6.08;42.10
10992;BME280;5549;47.028;15.514;2023-02-12T08:03:50;98280.28;;;6.22;41.55
10992;BME280;5549;47.028;15.514;2023-02-12T08:06:23;98282.25;;;5.93;43.90
10992;BME280;5549;47.028;15.514;2023-02-12T08:08:51;98285.75;;;5.69;44.91
10992;BME280;5549;47.028;15.514;2023-02-12T08:11:19;98288.00;;;5.78;42.66
10992;BME280;5549;47.028;15.514;2023-02-12T08:13:49;98294.44;;;5.93;41.62
10992;BME280;5549;47.028;15.514;2023-02-12T08:16:21;98287.66;;;5.87;41.99
10992;BME280;5549;47.028;15.514;2023-02-12T08:18:50;98289.28;;;5.91;41.96
10992;BME280;5549;47.028;15.514;2023-02-12T08:21:21;98290.69;;;6.00;41.20
10992;BME280;5549;47.028;15.514;2023-02-12T08:23:49;98296.41;;;6.09;41.44
10992;BME280;5549;47.028;15.514;2023-02-12T08:26:19;98289.84;;;6.21;41.56
10992;BME280;5549;47.028;15.514;2023-02-12T08:28:52;98289.19;;;6.38;41.37
10992;BME280;5549;47.028;15.514;2023-02-12T08:31:23;98278.81;;;6.58;42.70
10992;BME280;5549;47.028;15.514;2023-02-12T08:33:52;98279.59;;;6.60;41.97
10992;BME280;5549;47.028;15.514;2023-02-12T08:36:25;98280.94;;;6.91;41.82
10992;BME280;5549;47.028;15.514;2023-02-12T08:38:56;98279.78;;;7.18;41.88
10992;BME280;5549;47.028;15.514;2023-02-12T08:41:26;98271.88;;;7.40;41.00
10992;BME280;5549;47.028;15.514;2023-02-12T08:43:58;98283.28;;;7.58;41.55
10992;BME280;5549;47.028;15.514;2023-02-12T08:46:28;98288.25;;;7.83;41.32
10992;BME280;5549;47.028;15.514;2023-02-12T08:49:00;98289.66;;;7.71;41.54
10992;BME280;5549;47.028;15.514;2023-02-12T08:51:32;98294.03;;;8.08;42.01
10992;BME280;5549;47.028;15.514;2023-02-12T08:54:02;98290.16;;;8.17;42.47
10992;BME280;5549;47.028;15.514;2023-02-12T08:56:32;98290.59;;;8.62;41.23
10992;BME280;5549;47.028;15.514;2023-02-12T08:59:02;98294.22;;;8.79;38.76
10992;BME280;5549;47.028;15.514;2023-02-12T09:01:32;98292.97;;;9.38;38.57
10992;BME280;5549;47.028;15.514;2023-02-12T09:04:00;98296.19;;;9.76;39.09
10992;BME280;5549;47.028;15.514;2023-02-12T09:06:34;98291.50;;;10.14;38.61
10992;BME280;5549;47.028;15.514;2023-02-12T09:09:02;98289.34;;;10.38;36.67
10992;BME280;5549;47.028;15.514;2023-02-12T09:11:33;98299.94;;;10.36;35.94
10992;BME280;5549;47.028;15.514;2023-02-12T09:14:07;98309.53;;;10.53;36.53
10992;BME280;5549;47.028;15.514;2023-02-12T09:16:37;98309.50;;;10.69;35.87
10992;BME280;5549;47.028;15.514;2023-02-12T09:19:05;98308.78;;;10.97;34.58
10992;BME280;5549;47.028;15.514;2023-02-12T09:21:34;98314.72;;;11.00;35.17
10992;BME280;5549;47.028;15.514;2023-02-12T09:24:02;98311.78;;;11.35;33.92
10992;BME280;5549;47.028;15.514;2023-02-12T09:26:32;98308.56;;;11.74;34.28
10992;BME280;5549;47.028;15.514;2023-02-12T09:29:02;98313.97;;;12.15;33.17
10992;BME280;5549;47.028;15.514;2023-02-12T09:31:31;98309.31;;;12.33;31.61
10992;BME280;5549;47.028;15.514;2023-02-12T09:34:01;98315.13;;;12.52;29.65
10992;BME280;5549;47.028;15.514;2023-02-12T09:36:31;98322.09;;;12.80;29.62
10992;BME280;5549;47.028;15.514;2023-02-12T09:39:01;98312.47;;;13.06;29.32
10992;BME280;5549;47.028;15.514;2023-02-12T09:44:50;98314.91;;;13.74;30.38
10992;BME280;5549;47.028;15.514;2023-02-12T09:47:25;98314.28;;;14.08;30.23
10992;BME280;5549;47.028;15.514;2023-02-12T09:50:27;98318.22;;;14.52;29.68
10992;BME280;5549;47.028;15.514;2023-02-12T09:52:58;98315.22;;;14.93;29.78
10992;BME280;5549;47.028;15.514;2023-02-12T09:55:32;98324.38;;;14.76;28.71
10992;BME280;5549;47.028;15.514;2023-02-12T09:58:10;98336.19;;;14.60;28.25
10992;BME280;5549;47.028;15.514;2023-02-12T10:00:39;98328.31;;;14.95;28.31
10992;BME280;5549;47.028;15.514;2023-02-12T10:03:12;98324.22;;;14.67;28.81
10992;BME280;5549;47.028;15.514;2023-02-12T10:05:47;98331.22;;;14.55;27.75
10992;BME280;5549;47.028;15.514;2023-02-12T10:08:42;98327.78;;;14.42;28.53
10992;BME280;5549;47.028;15.514;2023-02-12T10:11:35;98326.63;;;14.70;29.53
10992;BME280;5549;47.028;15.514;2023-02-12T10:17:25;98325.88;;;15.16;30.13
10992;BME280;5549;47.028;15.514;2023-02-12T10:20:15;98327.06;;;15.47;30.48
10992;BME280;5549;47.028;15.514;2023-02-12T10:23:00;98331.59;;;15.57;29.12
10992;BME280;5549;47.028;15.514;2023-02-12T10:25:42;98328.75;;;15.71;28.43
10992;BME280;5549;47.028;15.514;2023-02-12T10:28:15;98321.81;;;15.93;28.40
10992;BME280;5549;47.028;15.514;2023-02-12T10:30:51;98330.81;;;15.55;25.98
10992;BME280;5549;47.028;15.514;2023-02-12T10:33:26;98335.34;;;14.83;26.78
10992;BME280;5549;47.028;15.514;2023-02-12T10:36:00;98335.63;;;13.93;28.95
10992;BME280;5549;47.028;15.514;2023-02-12T10:38:33;98335.59;;;13.42;29.27
10992;BME280;5549;47.028;15.514;2023-02-12T10:41:01;98348.81;;;12.88;29.74
10992;BME280;5549;47.028;15.514;2023-02-12T10:43:32;98355.72;;;12.35;30.12
10992;BME280;5549;47.028;15.514;2023-02-12T10:46:00;98347.25;;;12.16;30.93
10992;BME280;5549;47.028;15.514;2023-02-12T10:48:34;98349.31;;;11.97;30.96
10992;BME280;5549;47.028;15.514;2023-02-12T10:51:18;98342.53;;;11.93;30.93
10992;BME280;5549;47.028;15.514;2023-02-12T10:53:51;98337.16;;;11.94;31.62
10992;BME280;5549;47.028;15.514;2023-02-12T10:56:22;98340.00;;;12.19;31.05
10992;BME280;5549;47.028;15.514;2023-02-12T10:58:54;98330.69;;;12.28;31.76
10992;BME280;5549;47.028;15.514;2023-02-12T11:01:26;98326.56;;;12.24;31.72
10992;BME280;5549;47.028;15.514;2023-02-12T11:03:59;98334.47;;;12.24;31.88
10992;BME280;5549;47.028;15.514;2023-02-12T11:06:57;98334.25;;;12.41;32.65
10992;BME280;5549;47.028;15.514;2023-02-12T11:09:30;98331.16;;;12.76;32.89
10992;BME280;5549;47.028;15.514;2023-02-12T11:12:00;98323.53;;;12.98;32.90
10992;BME280;5549;47.028;15.514;2023-02-12T11:14:32;98315.75;;;13.09;34.06
10992;BME280;5549;47.028;15.514;2023-02-12T11:17:02;98309.28;;;13.28;35.14
10992;BME280;5549;47.028;15.514;2023-02-12T11:19:31;98318.50;;;13.08;33.46
10992;BME280;5549;47.028;15.514;2023-02-12T11:22:08;98321.09;;;13.35;33.00
10992;BME280;5549;47.028;15.514;2023-02-12T11:24:37;98309.94;;;13.44;33.40
10992;BME280;5549;47.028;15.514;2023-02-12T11:27:20;98304.97;;;13.77;33.30
10992;BME280;5549;47.028;15.514;2023-02-12T11:30:16;98306.06;;;13.88;32.32
10992;BME280;5549;47.028;15.514;2023-02-12T11:32:46;98304.22;;;14.13;32.65
10992;BME280;5549;47.028;15.514;2023-02-12T11:35:19;98303.81;;;13.69;33.72
10992;BME280;5549;47.028;15.514;2023-02-12T11:37:53;98299.22;;;14.47;33.55
10992;BME280;5549;47.028;15.514;2023-02-12T11:40:23;98304.13;;;14.64;32.09
10992;BME280;5549;47.028;15.514;2023-02-12T11:42:57;98295.50;;;14.50;31.98
10992;BME280;5549;47.028;15.514;2023-02-12T11:45:41;98300.41;;;14.91;31.79
10992;BME280;5549;47.028;15.514;2023-02-12T11:48:17;98292.69;;;15.12;31.82
10992;BME280;5549;47.028;15.514;2023-02-12T11:50:47;98301.56;;;15.11;31.01
10992;BME280;5549;47.028;15.514;2023-02-12T11:53:22;98297.84;;;15.13;31.34
10992;BME280;5549;47.028;15.514;2023-02-12T11:55:56;98295.56;;;15.08;31.57
10992;BME280;5549;47.028;15.514;2023-02-12T11:58:26;98290.81;;;15.36;31.22
10992;BME280;5549;47.028;15.514;2023-02-12T12:01:04;98273.13;;;15.60;32.13
10992;BME280;5549;47.028;15.514;2023-02-12T12:03:44;98273.84;;;15.62;31.91
10992;BME280;5549;47.028;15.514;2023-02-12T12:06:34;98279.75;;;15.77;30.20
10992;BME280;5549;47.028;15.514;2023-02-12T12:09:09;98275.44;;;15.87;31.07
10992;BME280;5549;47.028;15.514;2023-02-12T12:11:49;98268.06;;;16.13;29.67
10992;BME280;5549;47.028;15.514;2023-02-12T12:14:25;98278.53;;;16.37;31.13
10992;BME280;5549;47.028;15.514;2023-02-12T12:17:02;98272.53;;;16.78;30.41
10992;BME280;5549;47.028;15.514;2023-02-12T12:20:04;98266.19;;;17.02;30.80
10992;BME280;5549;47.028;15.514;2023-02-12T12:22:45;98259.91;;;17.03;29.06
10992;BME280;5549;47.028;15.514;2023-02-12T12:25:23;98260.81;;;17.13;28.59
10992;BME280;5549;47.028;15.514;2023-02-12T12:28:01;98260.31;;;16.44;28.79
10992;BME280;5549;47.028;15.514;2023-02-12T12:31:04;98259.00;;;16.38;29.53
10992;BME280;5549;47.028;15.514;2023-02-12T12:33:43;98260.88;;;16.58;29.25
10992;BME280;5549;47.028;15.514;2023-02-12T12:37:02;98254.97;;;16.55;28.63
10992;BME280;5549;47.028;15.514;2023-02-12T12:39:38;98253.94;;;16.35;29.74
10992;BME280;5549;47.028;15.514;2023-02-12T12:43:07;98243.75;;;16.08;29.76
10992;BME280;5549;47.028;15.514;2023-02-12T12:46:03;98239.34;;;15.51;30.17
10992;BME280;5549;47.028;15.514;2023-02-12T12:48:52;98245.00;;;15.00;30.68
10992;BME280;5549;47.028;15.514;2023-02-12T12:51:40;98238.19;;;15.09;31.16
10992;BME280;5549;47.028;15.514;2023-02-12T12:54:27;98240.53;;;15.47;30.89
10992;BME280;5549;47.028;15.514;2023-02-12T12:57:10;98241.03;;;15.52;30.58
10992;BME280;5549;47.028;15.514;2023-02-12T13:00:13;98247.88;;;14.97;31.15
10992;BME280;5549;47.028;15.514;2023-02-12T13:03:12;98241.56;;;14.76;30.89
10992;BME280;5549;47.028;15.514;2023-02-12T13:06:37;98245.34;;;14.61;31.63
10992;BME280;5549;47.028;15.514;2023-02-12T13:09:25;98241.09;;;14.82;31.88
10992;BME280;5549;47.028;15.514;2023-02-12T13:12:30;98235.13;;;14.91;32.06
10992;BME280;5549;47.028;15.514;2023-02-12T13:15:02;98235.53;;;14.74;31.28
10992;BME280;5549;47.028;15.514;2023-02-12T13:17:41;98238.75;;;15.01;32.28
10992;BME280;5549;47.028;15.514;2023-02-12T13:20:19;98237.97;;;14.40;31.74
10992;BME280;5549;47.028;15.514;2023-02-12T13:22:55;98226.75;;;15.08;32.21
10992;BME280;5549;47.028;15.514;2023-02-12T13:25:29;98226.94;;;15.52;31.49
10992;BME280;5549;47.028;15.514;2023-02-12T13:28:05;98227.50;;;15.90;31.30
10992;BME280;5549;47.028;15.514;2023-02-12T13:30:42;98225.94;;;15.99;30.19
10992;BME280;5549;47.028;15.514;2023-02-12T13:33:17;98226.25;;;16.28;30.43
10992;BME280;5549;47.028;15.514;2023-02-12T13:35:51;98222.19;;;15.90;30.32
10992;BME280;5549;47.028;15.514;2023-02-12T13:38:26;98214.97;;;15.92;29.28
10992;BME280;5549;47.028;15.514;2023-02-12T13:41:01;98218.19;;;16.18;30.09
10992;BME280;5549;47.028;15.514;2023-02-12T13:43:48;98221.91;;;16.27;29.75
10992;BME280;5549;47.028;15.514;2023-02-12T13:46:24;98221.94;;;16.16;29.62
10992;BME280;5549;47.028;15.514;2023-02-12T13:49:06;98227.50;;;16.56;30.62
10992;BME280;5549;47.028;15.514;2023-02-12T13:51:43;98223.75;;;16.70;29.74
10992;BME280;5549;47.028;15.514;2023-02-12T13:54:36;98219.09;;;16.40;29.09